Portada
METAR-TAF:

METAR-TAF

Aeroports :

Gagetown, Nova Brunsvic, Canadà

latitud: 45-50N, longitud: 066-26W, altitud: 51 m

Observació

L'informe es va fer fa 19 minuts, a les 15:00 UTC
Vent 6 kt del Nord/Nord-Est, variant entre Nord i Nord-Est
Temperatura 13°C
Humitat 72%
Pressió 1020 hPa
Visibilitat: 14.5 km
Escasses núvols a una alçada de 2000 ft
Cel cobert a una alçada de 3800 ft
Cel cobert a una alçada de 5800 ft
Cel cobert a una alçada de 8500 ft

METAR: CYCX 171500Z AUTO 03006KT 350V050 9SM FEW020 OVC038 OVC058 OVC085 13/08 A3012 RMK SLP201

Hora: 12:19 (15:19 UTC)


TAF: manca

Observacions i pronòstics meteorològics de més de 4000 aeroports (METAR i TAF).

Les estacions disponibles són els punts grocs i vermells al mapa.

Posi el ratolí al punt desitjat per veure el nom de l'estació.

Feu clic per veure les observacions i els pronòstics meteorològics.

Per canviar el mapa: feu clic els botons verds amb una creu de color negre per apropar; al botó verd amb un guió per allunyar la imatge; o en les fletxes verdes per a mapes adjacents.


METAR-TAF: